createdAt,value
2018-05-01T00:00:02.875Z,100128.17
2018-05-01T00:02:29.715Z,100131.36
2018-05-01T00:04:57.385Z,100128.72
2018-05-01T00:07:24.237Z,100141.67
2018-05-01T00:09:51.819Z,100148.25
2018-05-01T00:12:18.703Z,100154.82
2018-05-01T00:14:45.546Z,100151.03
2018-05-01T00:17:12.620Z,100160.27
2018-05-01T00:19:39.508Z,100162.32
2018-05-01T00:22:06.348Z,100162.86
2018-05-01T00:24:33.190Z,100164.25
2018-05-01T00:27:00.083Z,100160.86
2018-05-01T00:29:26.931Z,100156.14
2018-05-01T00:31:53.882Z,100159.41
2018-05-01T00:34:21.747Z,100149.25
2018-05-01T00:36:48.594Z,100164.98
2018-05-01T00:39:15.434Z,100165.73
2018-05-01T00:41:43.190Z,100172.34
2018-05-01T00:44:10.032Z,100172.44
2018-05-01T00:46:36.894Z,100169.59
2018-05-01T00:49:03.808Z,100170.23
2018-05-01T00:51:30.743Z,100166.39
2018-05-01T00:53:57.532Z,100152.50
2018-05-01T00:56:24.525Z,100164.87
2018-05-01T00:58:51.371Z,100158.28
2018-05-01T01:01:18.228Z,100158.77
2018-05-01T01:03:45.216Z,100154.25
2018-05-01T01:06:12.096Z,100148.44
2018-05-01T01:08:39.675Z,100147.47
2018-05-01T01:11:06.571Z,100149.03
2018-05-01T01:13:33.432Z,100147.35
2018-05-01T01:16:00.294Z,100145.48
2018-05-01T01:18:27.938Z,100141.61
2018-05-01T01:20:54.819Z,100134.07
2018-05-01T01:23:21.668Z,100138.55
2018-05-01T01:25:48.567Z,100135.86
2018-05-01T01:28:15.435Z,100131.30
2018-05-01T01:30:43.029Z,100134.75
2018-05-01T01:33:10.064Z,100131.53
2018-05-01T01:35:36.527Z,100137.94
2018-05-01T01:38:03.027Z,100145.41
2018-05-01T01:40:29.522Z,100141.38
2018-05-01T01:42:56.035Z,100142.43
2018-05-01T01:45:22.484Z,100143.50
2018-05-01T01:47:48.998Z,100152.77
2018-05-01T01:50:15.463Z,100146.83
2018-05-01T01:52:41.930Z,100154.63
2018-05-01T01:55:09.174Z,100152.27
2018-05-01T01:57:35.616Z,100160.39
2018-05-01T02:00:02.816Z,100139.29
2018-05-01T02:02:29.316Z,100145.19
2018-05-01T02:04:55.769Z,100145.98
2018-05-01T02:07:22.264Z,100140.70
2018-05-01T02:09:48.764Z,100145.81
2018-05-01T02:12:15.215Z,100137.47
2018-05-01T02:14:41.660Z,100140.34
2018-05-01T02:17:08.158Z,100145.72
2018-05-01T02:19:34.641Z,100146.24
2018-05-01T02:22:01.099Z,100147.66
2018-05-01T02:24:28.336Z,100153.95
2018-05-01T02:26:55.532Z,100148.77
2018-05-01T02:29:22.721Z,100145.33
2018-05-01T02:31:49.224Z,100145.66
2018-05-01T02:34:15.685Z,100146.07
2018-05-01T02:36:42.143Z,100148.52
2018-05-01T02:39:08.729Z,100143.55
2018-05-01T02:41:35.204Z,100139.70
2018-05-01T02:44:01.820Z,100141.56
2018-05-01T02:46:28.328Z,100153.13
2018-05-01T02:48:54.777Z,100144.18
2018-05-01T02:51:21.224Z,100143.25
2018-05-01T02:53:47.715Z,100151.08
2018-05-01T02:56:14.900Z,100139.90
2018-05-01T02:58:41.363Z,100148.69
2018-05-01T03:01:07.855Z,100140.86
2018-05-01T03:03:34.306Z,100146.63
2018-05-01T03:06:00.777Z,100149.34
2018-05-01T03:08:27.266Z,100140.69
2018-05-01T03:10:53.720Z,100148.04
2018-05-01T03:13:20.155Z,100140.01
2018-05-01T03:15:46.641Z,100144.46
2018-05-01T03:18:13.833Z,100143.30
2018-05-01T03:20:40.278Z,100138.11
2018-05-01T03:23:06.779Z,100130.88
2018-05-01T03:25:33.238Z,100132.03
2018-05-01T03:27:59.694Z,100125.37
2018-05-01T03:30:26.279Z,100129.88
2018-05-01T03:32:53.475Z,100132.19
2018-05-01T03:35:19.923Z,100139.30
2018-05-01T03:37:46.414Z,100138.23
2018-05-01T03:40:12.860Z,100121.36
2018-05-01T03:42:39.312Z,100126.36
2018-05-01T03:45:05.871Z,100127.63
2018-05-01T03:47:32.311Z,100130.25
2018-05-01T03:49:58.775Z,100135.82
2018-05-01T03:52:26.011Z,100126.69
2018-05-01T03:54:52.455Z,100133.00
2018-05-01T03:57:19.639Z,100128.63
2018-05-01T03:59:46.132Z,100118.16
2018-05-01T04:02:12.630Z,100128.03
2018-05-01T04:04:39.081Z,100140.80
2018-05-01T04:07:05.585Z,100128.59
2018-05-01T04:09:32.884Z,100126.50
2018-05-01T04:11:59.340Z,100132.02
2018-05-01T04:14:26.584Z,100117.86
2018-05-01T04:16:53.029Z,100124.89
2018-05-01T04:19:20.223Z,100138.03
2018-05-01T04:21:46.723Z,100142.42
2018-05-01T04:24:13.903Z,100152.29
2018-05-01T04:26:40.351Z,100139.23
2018-05-01T04:29:07.012Z,100137.59
2018-05-01T04:31:33.479Z,100146.94
2018-05-01T04:34:00.672Z,100145.50
2018-05-01T04:36:27.185Z,100140.39
2018-05-01T04:38:53.836Z,100147.14
2018-05-01T04:41:20.375Z,100143.19
2018-05-01T04:43:46.999Z,100139.70
2018-05-01T04:46:13.615Z,100145.98
2018-05-01T04:48:40.063Z,100146.73
2018-05-01T04:51:07.303Z,100134.04
2018-05-01T04:53:34.516Z,100142.11
2018-05-01T04:56:01.708Z,100152.28
2018-05-01T04:58:28.233Z,100154.84
2018-05-01T05:00:54.680Z,100150.29
2018-05-01T05:03:21.128Z,100149.28
2018-05-01T05:05:48.356Z,100151.33
2018-05-01T05:08:14.803Z,100151.35
2018-05-01T05:10:41.262Z,100153.72
2018-05-01T05:13:08.493Z,100155.54
2018-05-01T05:15:34.980Z,100142.55
2018-05-01T05:18:01.465Z,100154.72
2018-05-01T05:20:28.867Z,100153.86
2018-05-01T05:22:55.318Z,100150.64
2018-05-01T05:25:21.784Z,100159.28
2018-05-01T05:27:49.025Z,100156.61
2018-05-01T05:30:15.477Z,100153.83
2018-05-01T05:32:41.933Z,100149.77
2018-05-01T05:35:09.180Z,100156.87
2018-05-01T05:37:36.394Z,100163.08
2018-05-01T05:40:02.858Z,100153.31
2018-05-01T05:42:30.101Z,100149.39
2018-05-01T05:44:56.556Z,100143.80
2018-05-01T05:47:23.823Z,100156.38
2018-05-01T05:49:50.455Z,100156.92
2018-05-01T05:52:17.655Z,100137.39
2018-05-01T05:54:44.109Z,100146.50
2018-05-01T05:57:10.764Z,100157.61
2018-05-01T05:59:37.453Z,100160.06
2018-05-01T06:02:03.903Z,100155.30
2018-05-01T06:04:30.402Z,100152.98
2018-05-01T06:06:56.868Z,100157.17
2018-05-01T06:09:23.324Z,100157.27
2018-05-01T06:11:49.933Z,100150.99
2018-05-01T06:14:16.381Z,100172.98
2018-05-01T06:16:42.823Z,100166.22
2018-05-01T06:19:09.323Z,100176.37
2018-05-01T06:21:35.793Z,100183.25
2018-05-01T06:24:02.251Z,100171.30
2018-05-01T06:26:28.745Z,100177.78
2018-05-01T06:28:55.194Z,100188.44
2018-05-01T06:31:21.709Z,100183.48
2018-05-01T06:33:48.203Z,100183.88
2018-05-01T06:36:15.397Z,100185.52
2018-05-01T06:38:41.848Z,100191.71
2018-05-01T06:41:08.339Z,100204.45
2018-05-01T06:43:35.531Z,100218.27
2018-05-01T06:46:01.973Z,100211.39
2018-05-01T06:48:29.700Z,100218.20
2018-05-01T06:50:58.126Z,100210.75
2018-05-01T06:53:24.894Z,100224.29
2018-05-01T06:55:51.394Z,100222.95
2018-05-01T06:58:18.580Z,100232.56
2018-05-01T07:00:45.029Z,100239.84
2018-05-01T07:03:12.279Z,100238.26
2018-05-01T07:05:38.731Z,100242.81
2018-05-01T07:08:06.022Z,100243.69
2018-05-01T07:10:32.522Z,100262.34
2018-05-01T07:12:59.903Z,100262.11
2018-05-01T07:15:26.351Z,100266.00
2018-05-01T07:17:52.881Z,100270.30
2018-05-01T07:20:19.640Z,100268.98
2018-05-01T07:22:46.087Z,100273.97
2018-05-01T07:25:12.591Z,100279.37
2018-05-01T07:27:39.057Z,100282.18
2018-05-01T07:30:05.495Z,100281.51
2018-05-01T07:32:32.025Z,100298.39
2018-05-01T07:34:58.475Z,100298.16
2018-05-01T07:37:24.948Z,100277.58
2018-05-01T07:39:52.036Z,100314.45
2018-05-01T07:42:18.614Z,100313.77
2018-05-01T07:44:45.047Z,100305.58
2018-05-01T07:47:11.745Z,100316.77
2018-05-01T07:49:38.738Z,100330.59
2018-05-01T07:52:05.361Z,100335.43
2018-05-01T07:54:32.831Z,100337.28
2018-05-01T07:57:00.185Z,100345.07
2018-05-01T07:59:26.702Z,100342.16
2018-05-01T08:01:53.443Z,100345.71
2018-05-01T08:04:19.891Z,100359.78
2018-05-01T08:06:46.395Z,100358.08
2018-05-01T08:09:12.881Z,100371.89
2018-05-01T08:11:40.080Z,100363.55
2018-05-01T08:14:06.527Z,100372.91
2018-05-01T08:16:33.057Z,100382.39
2018-05-01T08:18:59.524Z,100398.33
2018-05-01T08:21:25.971Z,100382.44
2018-05-01T08:23:53.355Z,100393.11
2018-05-01T08:26:19.808Z,100393.41
2018-05-01T08:28:46.268Z,100404.75
2018-05-01T08:31:12.750Z,100404.80
2018-05-01T08:33:40.020Z,100418.66
2018-05-01T08:36:06.487Z,100404.09
2018-05-01T08:38:33.129Z,100435.92
2018-05-01T08:40:59.674Z,100442.14
2018-05-01T08:43:26.129Z,100444.67
2018-05-01T08:45:52.703Z,100438.78
2018-05-01T08:48:19.225Z,100444.84
2018-05-01T08:50:45.787Z,100454.45
2018-05-01T08:53:12.564Z,100461.95
2018-05-01T08:55:39.144Z,100460.89
2018-05-01T08:58:05.599Z,100463.80
2018-05-01T09:00:32.053Z,100467.66
2018-05-01T09:02:58.542Z,100473.31
2018-05-01T09:05:25.744Z,100477.33
2018-05-01T09:07:52.178Z,100493.02
2018-05-01T09:10:18.715Z,100494.11
2018-05-01T09:12:45.375Z,100486.77
2018-05-01T09:15:11.828Z,100504.53
2018-05-01T09:17:38.565Z,100518.84
2018-05-01T09:20:05.059Z,100515.89
2018-05-01T09:22:31.507Z,100516.36
2018-05-01T09:24:58.000Z,100532.70
2018-05-01T09:27:24.454Z,100530.08
2018-05-01T09:29:50.911Z,100520.83
2018-05-01T09:32:17.401Z,100539.72
2018-05-01T09:34:44.592Z,100551.21
2018-05-01T09:37:11.093Z,100556.98
2018-05-01T09:39:38.320Z,100556.35
2018-05-01T09:42:04.804Z,100557.29
2018-05-01T09:44:31.280Z,100553.93
2018-05-01T09:46:57.936Z,100568.09
2018-05-01T09:49:24.389Z,100567.95
2018-05-01T09:51:51.568Z,100567.44
2018-05-01T09:54:18.465Z,100577.86
2018-05-01T09:56:45.314Z,100584.12
2018-05-01T09:59:12.148Z,100592.52
2018-05-01T10:01:39.051Z,100614.77
2018-05-01T10:04:05.899Z,100606.45
2018-05-01T10:06:32.744Z,100633.83
2018-05-01T10:08:59.813Z,100626.05
2018-05-01T10:11:26.736Z,100621.36
2018-05-01T10:13:53.582Z,100623.34
2018-05-01T10:16:20.573Z,100633.58
2018-05-01T10:18:48.167Z,100634.02
2018-05-01T10:21:15.053Z,100630.59
2018-05-01T10:23:41.947Z,100640.08
2018-05-01T10:26:09.583Z,100644.69
2018-05-01T10:28:36.538Z,100644.42
2018-05-01T10:31:03.567Z,100658.58
2018-05-01T10:33:30.446Z,100668.69
2018-05-01T10:35:58.047Z,100663.34
2018-05-01T10:38:25.146Z,100668.55
2018-05-01T10:40:52.784Z,100672.89
2018-05-01T10:43:19.863Z,100661.05
2018-05-01T10:45:46.841Z,100677.70
2018-05-01T10:48:13.757Z,100684.41
2018-05-01T10:50:41.348Z,100684.65
2018-05-01T10:53:08.295Z,100692.57
2018-05-01T10:55:35.147Z,100723.23
2018-05-01T10:58:02.016Z,100714.56
2018-05-01T11:00:28.995Z,100714.41
2018-05-01T11:02:55.789Z,100729.92
2018-05-01T11:05:22.639Z,100733.09
2018-05-01T11:07:49.531Z,100733.02
2018-05-01T11:10:16.371Z,100746.49
2018-05-01T11:12:43.260Z,100755.55
2018-05-01T11:15:10.146Z,100763.88
2018-05-01T11:17:36.978Z,100763.92
2018-05-01T11:20:03.904Z,100758.62
2018-05-01T11:22:30.815Z,100765.59
2018-05-01T11:24:58.411Z,100787.42
2018-05-01T11:27:25.343Z,100779.27
2018-05-01T11:29:52.543Z,100803.02
2018-05-01T11:32:19.418Z,100794.68
2018-05-01T11:34:47.005Z,100807.71
2018-05-01T11:37:13.922Z,100816.33
2018-05-01T11:39:41.523Z,100827.08
2018-05-01T11:42:08.471Z,100825.83
2018-05-01T11:44:35.503Z,100836.22
2018-05-01T11:47:02.367Z,100836.13
2018-05-01T11:49:29.215Z,100857.40
2018-05-01T11:51:56.136Z,100853.16
2018-05-01T11:54:22.979Z,100866.23
2018-05-01T11:56:49.891Z,100869.80
2018-05-01T11:59:16.770Z,100891.17
2018-05-01T12:01:43.640Z,100881.95
2018-05-01T12:04:10.533Z,100890.17
2018-05-01T12:06:37.468Z,100898.04
2018-05-01T12:09:04.413Z,100890.97
2018-05-01T12:11:31.263Z,100910.80
2018-05-01T12:13:58.196Z,100916.89
2018-05-01T12:16:25.042Z,100918.11
2018-05-01T12:18:51.899Z,100928.73
2018-05-01T12:21:19.039Z,100930.93
2018-05-01T12:23:45.891Z,100934.56
2018-05-01T12:26:13.499Z,100935.39
2018-05-01T12:28:40.399Z,100940.43
2018-05-01T12:31:07.243Z,100940.53
2018-05-01T12:33:34.085Z,100959.28
2018-05-01T12:36:00.993Z,100946.67
2018-05-01T12:38:27.849Z,100961.25
2018-05-01T12:40:54.699Z,100968.83
2018-05-01T12:43:21.736Z,100975.09
2018-05-01T12:45:48.591Z,100981.27
2018-05-01T12:48:15.509Z,100984.57
2018-05-01T12:50:43.136Z,100985.65
2018-05-01T12:53:10.037Z,100984.97
2018-05-01T12:55:36.899Z,100994.88
2018-05-01T12:58:03.841Z,101002.66
2018-05-01T13:00:30.676Z,101004.02
2018-05-01T13:02:57.544Z,101007.25
2018-05-01T13:05:24.824Z,101013.14
2018-05-01T13:07:52.418Z,101022.23
2018-05-01T13:10:19.276Z,101021.55
2018-05-01T13:12:46.201Z,101028.52
2018-05-01T13:15:13.059Z,101037.52
2018-05-01T13:17:39.908Z,101031.63
2018-05-01T13:20:07.535Z,101031.50
2018-05-01T13:22:34.453Z,101040.58
2018-05-01T13:25:01.331Z,101046.04
2018-05-01T13:27:28.354Z,101052.98
2018-05-01T13:29:55.193Z,101048.52
2018-05-01T13:32:22.032Z,101056.11
2018-05-01T13:34:48.920Z,101060.72
2018-05-01T13:37:16.811Z,101065.61
2018-05-01T13:39:43.718Z,101067.42
2018-05-01T13:42:10.823Z,101072.11
2018-05-01T13:44:37.678Z,101076.98
2018-05-01T13:47:04.531Z,101087.52
2018-05-01T13:49:31.536Z,101088.16
2018-05-01T13:51:58.439Z,101087.92
2018-05-01T13:54:26.107Z,101092.55
2018-05-01T13:56:52.969Z,101095.88
2018-05-01T13:59:19.832Z,101089.59
2018-05-01T14:01:46.684Z,101100.48
2018-05-01T14:04:13.612Z,101104.91
2018-05-01T14:06:40.512Z,101110.80
2018-05-01T14:09:08.353Z,101107.01
2018-05-01T14:11:35.268Z,101107.23
2018-05-01T14:14:02.163Z,101104.97
2018-05-01T14:16:29.017Z,101111.42
2018-05-01T14:18:55.906Z,101121.38
2018-05-01T14:21:22.757Z,101120.52
2018-05-01T14:23:49.951Z,101131.00
2018-05-01T14:26:16.880Z,101130.84
2018-05-01T14:28:43.741Z,101125.55
2018-05-01T14:31:10.587Z,101125.45
2018-05-01T14:33:37.548Z,101127.67
2018-05-01T14:36:04.424Z,101124.87
2018-05-01T14:38:31.308Z,101127.09
2018-05-01T14:40:58.301Z,101123.20
2018-05-01T14:43:25.927Z,101128.61
2018-05-01T14:45:52.768Z,101116.58
2018-05-01T14:48:19.672Z,101124.61
2018-05-01T14:50:46.513Z,101131.09
2018-05-01T14:53:13.493Z,101138.34
2018-05-01T14:55:40.396Z,101141.12
2018-05-01T14:58:08.125Z,101143.37
2018-05-01T15:00:35.737Z,101146.41
2018-05-01T15:03:03.577Z,101139.10
2018-05-01T15:05:31.205Z,101158.92
2018-05-01T15:07:58.065Z,101160.86
2018-05-01T15:10:24.968Z,101165.92
2018-05-01T15:12:51.832Z,101165.15
2018-05-01T15:15:18.692Z,101156.72
2018-05-01T15:17:45.654Z,101172.23
2018-05-01T15:20:12.497Z,101165.59
2018-05-01T15:22:39.567Z,101176.84
2018-05-01T15:25:07.289Z,101177.45
2018-05-01T15:27:34.141Z,101176.81
2018-05-01T15:30:01.005Z,101182.33
2018-05-01T15:32:28.648Z,101173.37
2018-05-01T15:34:55.497Z,101175.13
2018-05-01T15:37:22.325Z,101191.77
2018-05-01T15:39:49.199Z,101185.81
2018-05-01T15:42:16.031Z,101191.00
2018-05-01T15:44:45.531Z,101198.84
2018-05-01T15:47:12.509Z,101193.30
2018-05-01T15:49:39.353Z,101194.86
2018-05-01T15:52:07.011Z,101197.00
2018-05-01T15:54:34.641Z,101197.80
2018-05-01T15:57:01.544Z,101208.70
2018-05-01T15:59:28.472Z,101207.94
2018-05-01T16:01:56.096Z,101210.33
2018-05-01T16:04:22.999Z,101206.13
2018-05-01T16:06:49.901Z,101213.19
2018-05-01T16:09:16.791Z,101221.25
2018-05-01T16:11:43.643Z,101232.93
2018-05-01T16:14:10.567Z,101230.47
2018-05-01T16:16:38.204Z,101235.09
2018-05-01T16:19:05.686Z,101236.03
2018-05-01T16:21:32.899Z,101236.00
2018-05-01T16:24:00.692Z,101234.62
2018-05-01T16:26:28.317Z,101233.91
2018-05-01T16:28:55.178Z,101239.28
2018-05-01T16:31:22.134Z,101236.64
2018-05-01T16:33:48.993Z,101237.18
2018-05-01T16:36:16.072Z,101237.09
2018-05-01T16:38:42.920Z,101234.70
2018-05-01T16:41:09.763Z,101234.02
2018-05-01T16:43:36.791Z,101240.15
2018-05-01T16:46:04.452Z,101240.89
2018-05-01T16:48:32.028Z,101237.02
2018-05-01T16:50:59.024Z,101244.69
2018-05-01T16:53:25.928Z,101247.76
2018-05-01T16:55:52.811Z,101260.53
2018-05-01T16:58:19.655Z,101253.34
2018-05-01T17:00:46.505Z,101258.89
2018-05-01T17:03:13.400Z,101257.56
2018-05-01T17:05:40.472Z,101261.19
2018-05-01T17:08:07.317Z,101270.98
2018-05-01T17:10:34.212Z,101275.49
2018-05-01T17:13:01.120Z,101269.74
2018-05-01T17:15:27.956Z,101274.19
2018-05-01T17:17:54.842Z,101273.45
2018-05-01T17:20:21.732Z,101278.47
2018-05-01T17:22:48.627Z,101284.95
2018-05-01T17:25:15.536Z,101287.31
2018-05-01T17:27:42.528Z,101303.82
2018-05-01T17:30:09.366Z,101308.06
2018-05-01T17:32:36.204Z,101303.09
2018-05-01T17:35:03.094Z,101313.57
2018-05-01T17:37:29.922Z,101318.36
2018-05-01T17:39:57.495Z,101321.11
2018-05-01T17:42:24.369Z,101321.34
2018-05-01T17:44:51.264Z,101321.80
2018-05-01T17:47:18.857Z,101322.95
2018-05-01T17:49:45.749Z,101335.31
2018-05-01T17:52:12.596Z,101341.84
2018-05-01T17:54:39.439Z,101344.67
2018-05-01T17:57:06.325Z,101341.88
2018-05-01T17:59:33.912Z,101343.29
2018-05-01T18:02:00.813Z,101347.89
2018-05-01T18:04:28.039Z,101349.36
2018-05-01T18:06:54.877Z,101349.48
2018-05-01T18:09:21.719Z,101352.52
2018-05-01T18:11:48.592Z,101356.44
2018-05-01T18:14:15.433Z,101363.90
2018-05-01T18:16:42.589Z,101372.41
2018-05-01T18:19:10.219Z,101379.45
2018-05-01T18:21:37.048Z,101381.51
2018-05-01T18:24:03.927Z,101384.85
2018-05-01T18:26:30.932Z,101395.66
2018-05-01T18:28:58.131Z,101402.27
2018-05-01T18:31:24.993Z,101399.73
2018-05-01T18:33:52.639Z,101412.98
2018-05-01T18:36:19.514Z,101410.41
2018-05-01T18:38:46.377Z,101413.91
2018-05-01T18:41:13.690Z,101413.96
2018-05-01T18:43:41.402Z,101417.88
2018-05-01T18:46:08.261Z,101426.70
2018-05-01T18:48:35.402Z,101429.39
2018-05-01T18:51:02.308Z,101432.67
2018-05-01T18:53:29.826Z,101441.09
2018-05-01T18:55:56.743Z,101442.73
2018-05-01T18:58:24.473Z,101439.52
2018-05-01T19:00:52.545Z,101444.95
2018-05-01T19:03:20.256Z,101455.75
2018-05-01T19:05:47.720Z,101466.26
2018-05-01T19:08:14.712Z,101460.74
2018-05-01T19:10:43.123Z,101458.05
2018-05-01T19:13:11.097Z,101462.54
2018-05-01T19:15:38.971Z,101463.87
2018-05-01T19:18:06.019Z,101460.70
2018-05-01T19:20:32.863Z,101458.62
2018-05-01T19:22:59.880Z,101461.11
2018-05-01T19:25:27.788Z,101461.34
2018-05-01T19:27:55.257Z,101463.92
2018-05-01T19:30:22.353Z,101458.95
2018-05-01T19:32:49.460Z,101456.69
2018-05-01T19:35:16.333Z,101459.08
2018-05-01T19:37:43.182Z,101457.73
2018-05-01T19:40:10.216Z,101451.66
2018-05-01T19:42:37.287Z,101457.65
2018-05-01T19:45:04.161Z,101458.17
2018-05-01T19:47:31.056Z,101460.48
2018-05-01T19:49:58.739Z,101464.56
2018-05-01T19:52:25.819Z,101464.49
2018-05-01T19:54:52.727Z,101465.64
2018-05-01T19:57:19.647Z,101461.67
2018-05-01T19:59:47.597Z,101471.08
2018-05-01T20:02:14.501Z,101456.78
2018-05-01T20:04:42.091Z,101465.08
2018-05-01T20:07:08.957Z,101467.44
2018-05-01T20:09:35.851Z,101466.61
2018-05-01T20:12:03.504Z,101476.36
2018-05-01T20:14:30.575Z,101478.59
2018-05-01T20:16:58.696Z,101479.01
2018-05-01T20:19:25.548Z,101485.25
2018-05-01T20:21:52.391Z,101489.53
2018-05-01T20:24:19.308Z,101492.81
2018-05-01T20:26:46.155Z,101501.06
2018-05-01T20:29:13.005Z,101500.09
2018-05-01T20:31:41.245Z,101500.23
2018-05-01T20:34:08.087Z,101498.02
2018-05-01T20:36:34.919Z,101503.44
2018-05-01T20:39:01.928Z,101503.38
2018-05-01T20:41:28.765Z,101505.84
2018-05-01T20:43:55.616Z,101506.39
2018-05-01T20:46:22.507Z,101515.08
2018-05-01T20:48:49.359Z,101518.78
2018-05-01T20:51:17.725Z,101521.17
2018-05-01T20:53:44.683Z,101524.31
2018-05-01T20:56:12.279Z,101519.33
2018-05-01T20:58:39.122Z,101522.07
2018-05-01T21:01:06.192Z,101515.59
2018-05-01T21:03:33.049Z,101515.61
2018-05-01T21:05:59.902Z,101526.21
2018-05-01T21:08:29.673Z,101525.09
2018-05-01T21:10:56.605Z,101535.49
2018-05-01T21:13:23.412Z,101530.30
2018-05-01T21:15:50.475Z,101534.34
2018-05-01T21:18:18.066Z,101539.45
2018-05-01T21:20:44.915Z,101535.87
2018-05-01T21:23:11.951Z,101536.23
2018-05-01T21:25:38.848Z,101544.14
2018-05-01T21:28:05.703Z,101548.55
2018-05-01T21:30:32.606Z,101542.98
2018-05-01T21:32:59.523Z,101541.20
2018-05-01T21:35:27.127Z,101537.86
2018-05-01T21:37:54.036Z,101545.65
2018-05-01T21:40:21.635Z,101546.53
2018-05-01T21:42:48.485Z,101555.02
2018-05-01T21:45:15.375Z,101548.44
2018-05-01T21:47:42.953Z,101555.23
2018-05-01T21:50:10.552Z,101555.25
2018-05-01T21:52:37.440Z,101558.45
2018-05-01T21:55:04.308Z,101559.48
2018-05-01T21:57:31.145Z,101557.10
2018-05-01T21:59:58.786Z,101551.24
2018-05-01T22:02:25.629Z,101554.72
2018-05-01T22:04:52.480Z,101565.05
2018-05-01T22:07:20.115Z,101564.55
2018-05-01T22:09:46.956Z,101565.81
2018-05-01T22:12:13.794Z,101558.05
2018-05-01T22:14:41.531Z,101554.16
2018-05-01T22:17:08.395Z,101563.88
2018-05-01T22:19:35.249Z,101556.19
2018-05-01T22:22:02.166Z,101563.61
2018-05-01T22:24:29.006Z,101567.20
2018-05-01T22:26:55.855Z,101574.45
2018-05-01T22:29:23.488Z,101577.73
2018-05-01T22:31:51.076Z,101583.55
2018-05-01T22:34:18.309Z,101573.16
2018-05-01T22:36:45.135Z,101572.10
2018-05-01T22:39:12.208Z,101572.05
2018-05-01T22:41:39.056Z,101566.81
2018-05-01T22:44:06.679Z,101566.22
2018-05-01T22:46:33.519Z,101563.42
2018-05-01T22:49:00.357Z,101561.55
2018-05-01T22:51:27.397Z,101574.23
2018-05-01T22:53:54.294Z,101572.59
2018-05-01T22:56:21.943Z,101575.55
2018-05-01T22:58:48.829Z,101589.79
2018-05-01T23:01:15.676Z,101582.63
2018-05-01T23:03:43.255Z,101588.44
2018-05-01T23:06:10.163Z,101584.47
2018-05-01T23:08:37.003Z,101589.83
2018-05-01T23:11:04.592Z,101588.58
2018-05-01T23:13:31.476Z,101590.81
2018-05-01T23:15:58.332Z,101583.45
2018-05-01T23:18:25.911Z,101592.20
2018-05-01T23:20:53.532Z,101587.13
2018-05-01T23:23:20.376Z,101585.13
2018-05-01T23:25:47.216Z,101584.36
2018-05-01T23:28:14.132Z,101583.42
2018-05-01T23:30:40.988Z,101584.22
2018-05-01T23:33:07.819Z,101583.64
2018-05-01T23:35:34.775Z,101578.47
2018-05-01T23:38:01.643Z,101576.59
2018-05-01T23:40:28.498Z,101575.30
2018-05-01T23:43:16.195Z,101557.98
2018-05-01T23:45:43.034Z,101561.54
2018-05-01T23:48:09.868Z,101558.53
2018-05-01T23:50:36.908Z,101554.02
2018-05-01T23:53:03.770Z,101557.02
2018-05-01T23:55:30.624Z,101552.52
2018-05-01T23:57:57.509Z,101551.62
